Opasatika, Canada
Current Conditions -  °F | °C
As of 3:00 AM on Monday 22 Dec 2014 (Local Time) from CYYU Reporting Station
Light Snow Light Snow  
Wind Chill: 15°   Ceiling: 1800
Heat Index: 25°   Visibility: 12mi
Dew Point: 23°   Wind: 9mph
Humidity: 93%   Direction: 180°S
Pressure: 30.06"   Gusts: NA
Location:  49.53°N, 82.87°W
Report Text: CYYU 220800Z 18008KT 12SM -SN OVC018 M04/M05 A3006 RMK SC8 SLP193
Loading
Personal Weather Stations






























Interactive Weather Map New forecast layout! Learn more

10-Day Weather Forecast

Advertisements
Track Severe Weather on mobile